createdAt,value
2023-05-11T00:01:49.695Z,14.95
2023-05-11T00:06:01.365Z,14.96
2023-05-11T00:10:13.188Z,14.94
2023-05-11T00:14:24.861Z,14.94
2023-05-11T00:18:36.552Z,14.93
2023-05-11T00:22:48.294Z,14.88
2023-05-11T00:27:00.054Z,14.86
2023-05-11T00:31:11.683Z,14.86
2023-05-11T00:35:23.376Z,14.84
2023-05-11T00:39:40.264Z,14.80
2023-05-11T00:43:51.954Z,14.76
2023-05-11T00:48:03.926Z,14.74
2023-05-11T00:52:15.560Z,14.68
2023-05-11T00:56:27.208Z,14.66
2023-05-11T01:00:39.118Z,14.62
2023-05-11T01:04:51.820Z,14.60
2023-05-11T01:09:09.594Z,14.56
2023-05-11T01:13:24.702Z,14.60
2023-05-11T01:18:01.326Z,14.55
2023-05-11T01:22:48.062Z,14.62
2023-05-11T01:27:22.000Z,14.59
2023-05-11T01:31:35.372Z,14.65
2023-05-11T01:35:52.319Z,14.68
2023-05-11T01:40:10.368Z,14.74
2023-05-11T01:44:25.778Z,14.71
2023-05-11T01:48:40.896Z,14.68
2023-05-11T01:52:53.565Z,14.69
2023-05-11T01:57:05.764Z,14.69
2023-05-11T02:01:19.488Z,14.72
2023-05-11T02:05:32.581Z,14.75
2023-05-11T02:09:44.746Z,14.71
2023-05-11T02:13:58.784Z,14.76
2023-05-11T02:18:14.068Z,14.71
2023-05-11T02:22:26.602Z,14.65
2023-05-11T02:26:38.304Z,14.59
2023-05-11T02:30:54.383Z,14.61
2023-05-11T02:35:16.005Z,14.65
2023-05-11T02:39:35.119Z,14.61
2023-05-11T02:43:52.199Z,14.62
2023-05-11T02:48:09.765Z,14.56
2023-05-11T02:52:23.989Z,14.56
2023-05-11T02:56:35.952Z,14.54
2023-05-11T03:00:48.384Z,14.52
2023-05-11T03:05:00.061Z,14.49
2023-05-11T03:09:12.074Z,14.44
2023-05-11T03:13:29.603Z,14.40
2023-05-11T03:17:43.533Z,14.32
2023-05-11T03:21:59.934Z,14.34
2023-05-11T03:26:12.899Z,14.34
2023-05-11T03:30:28.071Z,14.36
2023-05-11T03:34:41.836Z,14.29
2023-05-11T03:38:58.055Z,14.26
2023-05-11T03:43:19.122Z,14.26
2023-05-11T03:47:34.010Z,14.27
2023-05-11T03:51:46.901Z,14.24
2023-05-11T03:55:58.829Z,14.22
2023-05-11T04:00:11.684Z,14.16
2023-05-11T04:04:31.185Z,14.14
2023-05-11T04:08:44.601Z,14.18
2023-05-11T04:12:56.258Z,14.14
2023-05-11T04:17:07.835Z,14.18
2023-05-11T04:21:19.429Z,14.19
2023-05-11T04:25:31.170Z,14.22
2023-05-11T04:29:42.857Z,14.26
2023-05-11T04:33:54.432Z,14.31
2023-05-11T04:38:06.383Z,14.36
2023-05-11T04:42:18.198Z,14.40
2023-05-11T04:46:34.036Z,14.40
2023-05-11T04:50:45.989Z,14.44
2023-05-11T04:54:58.678Z,14.41
2023-05-11T04:59:10.673Z,14.47
2023-05-11T05:03:22.518Z,14.47
2023-05-11T05:07:34.197Z,14.51
2023-05-11T05:11:45.995Z,14.54
2023-05-11T05:15:57.659Z,14.50
2023-05-11T05:20:09.508Z,14.52
2023-05-11T05:24:21.197Z,14.49
2023-05-11T05:28:35.886Z,14.49
2023-05-11T05:32:47.638Z,14.54
2023-05-11T05:36:59.845Z,14.51
2023-05-11T05:41:12.419Z,14.56
2023-05-11T05:45:27.004Z,14.56
2023-05-11T05:49:39.617Z,14.61
2023-05-11T05:53:51.757Z,14.66
2023-05-11T05:58:03.479Z,14.76
2023-05-11T06:02:16.057Z,14.79
2023-05-11T06:06:27.813Z,14.87
2023-05-11T06:10:39.614Z,15.00
2023-05-11T06:14:52.924Z,15.05
2023-05-11T06:19:04.845Z,15.10
2023-05-11T06:23:16.885Z,15.28
2023-05-11T06:27:29.593Z,15.42
2023-05-11T06:31:42.928Z,15.64
2023-05-11T06:35:54.682Z,15.80
2023-05-11T06:40:07.872Z,15.99
2023-05-11T06:44:19.528Z,16.22
2023-05-11T06:48:31.575Z,16.87
2023-05-11T06:52:43.752Z,18.15
2023-05-11T06:56:55.374Z,18.68
2023-05-11T07:01:08.100Z,18.63
2023-05-11T07:05:19.892Z,18.46
2023-05-11T07:09:31.591Z,18.38
2023-05-11T07:13:43.211Z,18.66
2023-05-11T07:17:54.840Z,18.75
2023-05-11T07:22:06.821Z,18.57
2023-05-11T07:26:18.519Z,18.28
2023-05-11T07:30:30.232Z,18.08
2023-05-11T07:34:42.287Z,18.08
2023-05-11T07:38:53.907Z,18.13
2023-05-11T07:43:05.645Z,18.22
2023-05-11T07:47:19.039Z,18.26
2023-05-11T07:51:30.884Z,18.73
2023-05-11T07:55:42.489Z,19.09
2023-05-11T07:59:54.083Z,19.17
2023-05-11T08:04:05.747Z,19.23
2023-05-11T08:08:17.392Z,19.38
2023-05-11T08:12:29.203Z,19.89
2023-05-11T08:16:40.931Z,20.69
2023-05-11T08:20:52.746Z,20.87
2023-05-11T08:25:05.654Z,20.82
2023-05-11T08:29:17.308Z,20.54
2023-05-11T08:37:43.424Z,20.15
2023-05-11T08:41:59.702Z,20.44
2023-05-11T08:46:14.154Z,21.73
2023-05-11T08:50:25.894Z,22.79
2023-05-11T08:54:37.518Z,23.97
2023-05-11T08:58:50.648Z,25.03
2023-05-11T09:03:03.938Z,26.02
2023-05-11T09:07:19.880Z,26.66
2023-05-11T09:11:31.941Z,26.53
2023-05-11T09:15:43.665Z,25.56
2023-05-11T09:20:06.790Z,24.50
2023-05-11T09:24:20.697Z,23.47
2023-05-11T09:28:36.050Z,22.67
2023-05-11T09:32:59.550Z,21.94
2023-05-11T09:37:18.876Z,21.51
2023-05-11T09:41:35.851Z,21.06
2023-05-11T09:45:50.257Z,20.69
2023-05-11T09:50:16.144Z,20.29
2023-05-11T09:54:28.727Z,20.02
2023-05-11T09:58:47.537Z,19.87
2023-05-11T10:03:08.025Z,19.66
2023-05-11T10:07:34.196Z,19.46
2023-05-11T10:11:46.620Z,19.39
2023-05-11T10:15:59.378Z,19.39
2023-05-11T10:20:12.808Z,19.25
2023-05-11T10:24:25.149Z,19.19
2023-05-11T10:28:37.207Z,19.07
2023-05-11T10:32:49.576Z,19.10
2023-05-11T10:37:02.652Z,19.19
2023-05-11T10:41:42.488Z,19.29
2023-05-11T10:46:09.489Z,19.27
2023-05-11T10:50:52.178Z,19.31
2023-05-11T10:55:30.540Z,19.27
2023-05-11T10:59:58.081Z,19.32
2023-05-11T11:04:11.721Z,19.27
2023-05-11T11:08:23.276Z,19.11
2023-05-11T11:12:35.104Z,18.80
2023-05-11T11:17:14.493Z,18.90
2023-05-11T11:21:41.377Z,18.80
2023-05-11T11:25:56.424Z,18.64
2023-05-11T11:30:21.007Z,18.48
2023-05-11T11:34:33.920Z,18.32
2023-05-11T11:39:00.106Z,18.25
2023-05-11T11:43:12.563Z,18.19
2023-05-11T11:47:25.963Z,18.11
2023-05-11T11:51:40.029Z,18.08
2023-05-11T11:55:51.848Z,18.06
2023-05-11T12:00:10.916Z,18.06
2023-05-11T12:04:39.335Z,18.07
2023-05-11T12:08:51.181Z,18.08
2023-05-11T12:13:04.084Z,18.09
2023-05-11T12:17:24.194Z,18.09
2023-05-11T12:21:37.307Z,17.95
2023-05-11T12:26:06.661Z,17.94
2023-05-11T12:30:21.719Z,17.95
2023-05-11T12:34:33.269Z,17.99
2023-05-11T12:38:46.497Z,18.20
2023-05-11T12:43:00.363Z,18.34
2023-05-11T12:47:12.122Z,18.33
2023-05-11T12:51:50.518Z,18.34
2023-05-11T12:56:02.718Z,18.39
2023-05-11T13:00:16.318Z,18.40
2023-05-11T13:04:29.878Z,18.38
2023-05-11T13:08:46.594Z,18.53
2023-05-11T13:12:59.027Z,18.61
2023-05-11T13:17:10.954Z,18.76
2023-05-11T13:21:22.560Z,18.79
2023-05-11T13:25:51.573Z,18.96
2023-05-11T13:30:04.644Z,19.06
2023-05-11T13:34:17.067Z,19.11
2023-05-11T13:38:28.774Z,19.17
2023-05-11T13:42:41.635Z,19.28
2023-05-11T13:46:53.398Z,19.17
2023-05-11T13:51:05.061Z,19.51
2023-05-11T13:55:16.903Z,19.45
2023-05-11T13:59:28.621Z,19.59
2023-05-11T14:03:40.378Z,19.56
2023-05-11T14:07:52.342Z,19.85
2023-05-11T14:12:04.236Z,20.02
2023-05-11T14:16:15.912Z,19.97
2023-05-11T14:20:27.541Z,20.21
2023-05-11T14:24:39.180Z,20.38
2023-05-11T14:28:50.829Z,20.26
2023-05-11T14:33:02.934Z,20.44
2023-05-11T14:37:14.643Z,20.59
2023-05-11T14:41:26.273Z,20.51
2023-05-11T14:45:38.013Z,20.68
2023-05-11T14:49:49.752Z,20.54
2023-05-11T14:54:01.417Z,20.54
2023-05-11T14:58:13.098Z,20.54
2023-05-11T15:02:26.045Z,20.41
2023-05-11T15:06:39.128Z,20.48
2023-05-11T15:10:51.051Z,20.49
2023-05-11T15:15:05.377Z,20.58
2023-05-11T15:19:17.067Z,20.52
2023-05-11T15:23:28.859Z,20.47
2023-05-11T15:27:40.560Z,20.36
2023-05-11T15:31:52.491Z,20.26
2023-05-11T15:36:11.166Z,20.26
2023-05-11T15:40:24.296Z,19.99
2023-05-11T15:44:36.269Z,19.91
2023-05-11T15:48:47.985Z,19.21
2023-05-11T15:53:00.933Z,18.79
2023-05-11T15:57:12.593Z,18.48
2023-05-11T16:01:24.412Z,18.23
2023-05-11T16:05:37.567Z,17.77
2023-05-11T16:09:49.241Z,17.43
2023-05-11T16:14:00.903Z,17.27
2023-05-11T16:18:14.036Z,17.09
2023-05-11T16:22:26.163Z,16.93
2023-05-11T16:26:37.881Z,16.80
2023-05-11T16:30:49.613Z,16.78
2023-05-11T16:35:01.279Z,16.75
2023-05-11T16:39:13.032Z,16.64
2023-05-11T16:43:24.715Z,16.50
2023-05-11T16:47:36.372Z,16.43
2023-05-11T16:51:48.003Z,16.46
2023-05-11T16:55:59.796Z,16.40
2023-05-11T17:00:12.816Z,16.42
2023-05-11T17:04:24.478Z,16.51
2023-05-11T17:08:36.090Z,16.55
2023-05-11T17:12:48.007Z,16.62
2023-05-11T17:16:59.550Z,16.61
2023-05-11T17:21:11.294Z,16.59
2023-05-11T17:25:22.860Z,16.63
2023-05-11T17:29:34.540Z,16.58
2023-05-11T17:33:46.451Z,16.62
2023-05-11T17:37:58.138Z,16.54
2023-05-11T17:42:12.024Z,16.55
2023-05-11T17:46:24.219Z,16.57
2023-05-11T17:50:36.707Z,16.56
2023-05-11T17:54:48.372Z,16.46
2023-05-11T17:58:59.995Z,16.51
2023-05-11T18:03:12.278Z,16.43
2023-05-11T18:07:23.969Z,16.42
2023-05-11T18:11:35.873Z,16.30
2023-05-11T18:15:47.801Z,16.29
2023-05-11T18:19:59.546Z,16.24
2023-05-11T18:24:13.449Z,16.31
2023-05-11T18:28:25.084Z,16.30
2023-05-11T18:32:37.794Z,16.34
2023-05-11T18:36:49.469Z,16.29
2023-05-11T18:41:05.247Z,16.25
2023-05-11T18:45:17.451Z,16.20
2023-05-11T18:49:29.505Z,16.08
2023-05-11T18:53:41.417Z,16.08
2023-05-11T18:57:53.137Z,16.01
2023-05-11T19:02:05.025Z,16.01
2023-05-11T19:06:16.679Z,15.94
2023-05-11T19:10:28.401Z,15.92
2023-05-11T19:14:40.149Z,15.93
2023-05-11T19:18:52.543Z,15.71
2023-05-11T19:23:04.423Z,15.77
2023-05-11T19:27:16.186Z,15.78
2023-05-11T19:31:31.216Z,15.80
2023-05-11T19:35:42.958Z,15.65
2023-05-11T19:40:00.671Z,15.63
2023-05-11T19:44:23.044Z,15.64
2023-05-11T19:48:34.817Z,15.51
2023-05-11T19:52:46.500Z,15.52
2023-05-11T19:56:59.909Z,15.65
2023-05-11T20:01:11.588Z,15.58
2023-05-11T20:05:23.287Z,15.56
2023-05-11T20:09:35.058Z,15.58
2023-05-11T20:13:47.879Z,15.44
2023-05-11T20:18:00.545Z,15.49
2023-05-11T20:22:12.208Z,15.41
2023-05-11T20:26:24.252Z,15.32
2023-05-11T20:30:36.588Z,15.24
2023-05-11T20:34:48.390Z,15.24
2023-05-11T20:39:00.087Z,15.07
2023-05-11T20:43:13.773Z,15.07
2023-05-11T20:47:26.341Z,15.05
2023-05-11T20:51:38.010Z,15.00
2023-05-11T20:55:51.056Z,15.02
2023-05-11T21:00:04.546Z,14.98
2023-05-11T21:04:17.048Z,14.95
2023-05-11T21:08:28.724Z,14.86
2023-05-11T21:12:41.326Z,14.96
2023-05-11T21:16:53.038Z,14.81
2023-05-11T21:21:04.729Z,14.76
2023-05-11T21:25:16.419Z,14.74
2023-05-11T21:29:28.000Z,14.76
2023-05-11T21:33:39.601Z,14.67
2023-05-11T21:37:51.157Z,14.56
2023-05-11T21:42:03.567Z,14.53
2023-05-11T21:46:15.210Z,14.43
2023-05-11T21:50:26.886Z,14.43
2023-05-11T21:54:38.519Z,14.43
2023-05-11T21:58:50.221Z,14.43
2023-05-11T22:03:02.710Z,14.42
2023-05-11T22:07:14.406Z,14.44
2023-05-11T22:11:26.177Z,14.44
2023-05-11T22:15:38.216Z,14.37
2023-05-11T22:19:49.793Z,14.40
2023-05-11T22:24:01.404Z,14.28
2023-05-11T22:28:13.080Z,14.25
2023-05-11T22:32:24.725Z,14.24
2023-05-11T22:36:36.337Z,14.16
2023-05-11T22:40:48.258Z,14.10
2023-05-11T22:44:59.780Z,14.05
2023-05-11T22:49:11.338Z,14.05
2023-05-11T22:53:23.092Z,13.88
2023-05-11T22:57:34.795Z,13.91
2023-05-11T23:01:46.975Z,13.76
2023-05-11T23:05:58.574Z,13.71
2023-05-11T23:10:10.709Z,13.75
2023-05-11T23:14:22.589Z,13.75
2023-05-11T23:18:34.333Z,13.70
2023-05-11T23:22:46.018Z,13.67
2023-05-11T23:26:57.653Z,13.55
2023-05-11T23:31:09.278Z,13.43
2023-05-11T23:35:21.008Z,13.52
2023-05-11T23:39:32.655Z,13.47
2023-05-11T23:43:44.421Z,13.43
2023-05-11T23:47:56.322Z,13.50
2023-05-11T23:52:07.931Z,13.40
2023-05-11T23:56:19.625Z,13.44
